Seabourn Sojourn — C6YA5 — position and weather

sailwx.info

Track history (hours):
 
Tides and Currents Weather Stations Pressure Air Temp Water Temp Dewpoint Dewpoint Depression Visibility Wind Speed Wind Dir Waves Ship Positions

Seabourn Sojourn

Last reported at 2020-Jan-24 01:00 UTC. Time now 2020-Jan-24 02:27 UTC.
Position N 14°42' W 018°24'.

Length 197 m; draft 6.6 m.

Type: Ship. MMSI: 311027100.

Barometer 1011.0 mb

Date/timePositionNaut miles runAvg speedWind from/ knotsBaromVisibWave heightAir tempDewpointWater temp
2020-Jan-24 01:00N 14°42' W 018°24'10133.8 1011.0
2020-Jan-23 22:00N 15°06' W 020°06'0 0.0 070 / 231013.0
2020-Jan-23 21:00N 15°06' W 020°06'0 0.0 070 / 231013.0
2020-Jan-23 19:00N 15°06' W 020°06'0 0.0 070 / 231013.0
2020-Jan-23 18:00N 15°06' W 020°06'8516.9 070 / 231013.0
2020-Jan-23 13:00N 15°30' W 021°30'1211.6 080 / 191013.0
2020-Jan-23 12:00N 15°30' W 021°42'3115.6 080 / 181014.0
2020-Jan-23 10:00N 15°42' W 022°12'1818.3 080 / 211016.0
2020-Jan-23 09:00N 15°48' W 022°30'1211.5 070 / 201015.0
2020-Jan-23 08:00N 15°48' W 022°42'1313.0 070 / 231015.0
2020-Jan-23 07:00N 15°54' W 022°54'1818.3 070 / 111015.0
2020-Jan-23 06:00N 16°00' W 023°12'1313.0 1012.0
2020-Jan-23 05:00N 16°06' W 023°24'1211.5 1012.0
2020-Jan-23 04:00N 16°06' W 023°36'8 8.3 070 / 221014.0
2020-Jan-23 03:00N 16°12' W 023°42'8311.9 1014.0
2020-Jan-22 20:00N 16°48' W 025°00'0 0.0 070 / 101015.0
2020-Jan-22 19:00N 16°48' W 025°00'0 0.0 090 / 41014.0
2020-Jan-22 17:00N 16°48' W 025°00'0 0.0 050 / 61016.0
2020-Jan-22 13:00N 16°48' W 025°00'0 0.0 1016.0
2020-Jan-22 12:00N 16°48' W 025°00'0 0.0 1016.0
2020-Jan-22 09:00N 16°48' W 025°00'6312.6 050 / 61016.0
2020-Jan-22 04:00N 16°48' W 026°06'1111.5 090 / 151013.0
2020-Jan-22 03:00N 16°48' W 026°18'1717.2 1013.0
2020-Jan-22 02:00N 16°48' W 026°36'6 5.7 1013.0
2020-Jan-22 01:00N 16°48' W 026°42'5857.8 1013.0
2020-Jan-22 00:00N 16°42' W 027°42'0 0.0 040 / 161014.0
2020-Jan-21 22:00N 16°42' W 027°42'0 0.0 040 / 161014.0
2020-Jan-21 21:00N 16°42' W 027°42'1717.2 040 / 161014.0
2020-Jan-21 20:00N 16°42' W 028°00'3411.5 040 / 161014.0
2020-Jan-21 17:00N 16°42' W 028°36'3417.2 070 / 91013.0
2020-Jan-21 15:00N 16°42' W 029°12'8 8.3 040 / 141012.0
2020-Jan-21 14:00N 16°36' W 029°18'1717.2 040 / 141012.0
2020-Jan-21 13:00N 16°36' W 029°36'2914.4 070 / 131013.0
2020-Jan-21 11:00N 16°36' W 030°06'1111.5 060 / 81015.0
2020-Jan-21 10:00N 16°36' W 030°18'1717.2 070 / 81015.0
2020-Jan-21 09:00N 16°36' W 030°36'1111.5 080 / 61015.0
2020-Jan-21 08:00N 16°36' W 030°48'1818.3 080 / 101015.0
2020-Jan-21 07:00N 16°30' W 031°06'1211.5 1013.0
2020-Jan-21 06:00N 16°30' W 031°18'1211.5 1012.0
2020-Jan-21 05:00N 16°30' W 031°30'1211.5 1012.0
2020-Jan-21 04:00N 16°30' W 031°42'1717.3 050 / 201013.0
2020-Jan-21 03:00N 16°30' W 032°00'1211.5 050 / 201013.0
2020-Jan-21 02:00N 16°30' W 032°12'1717.3 050 / 181013.0
2020-Jan-21 01:00N 16°30' W 032°30'8140.4 050 / 171013.0
2020-Jan-20 23:00N 16°24' W 033°54'0 0.0 050 / 171013.0
2020-Jan-20 22:00N 16°24' W 033°54'0 0.0 050 / 171013.0
2020-Jan-20 21:00N 16°24' W 033°54'0 0.0 050 / 171013.0
2020-Jan-20 20:00N 16°24' W 033°54'1818.3 050 / 171013.0
2020-Jan-20 19:00N 16°18' W 034°12'5217.3 050 / 171013.0
2020-Jan-20 16:00N 16°18' W 035°06'0 0.0 040 / 151016.0
2020-Jan-20 15:00N 16°18' W 035°06'17517.5 040 / 151016.0
2020-Jan-20 05:00N 15°54' W 038°06'1818.3 1014.0
2020-Jan-20 04:00N 15°48' W 038°24'1211.5 1015.0
2020-Jan-20 03:00N 15°48' W 038°36'9392.6 1015.0
2020-Jan-20 02:00N 15°42' W 040°12'0 0.0 060 / 151016.0
2020-Jan-20 01:00N 15°42' W 040°12'3131.3 060 / 151016.0
2020-Jan-20 00:00N 15°30' W 040°42'0 0.0 060 / 151016.0
2020-Jan-19 22:00N 15°30' W 040°42'0 0.0 060 / 151016.0
2020-Jan-19 20:00N 15°30' W 040°42'2914.5 060 / 151016.0
2020-Jan-19 18:00N 15°30' W 041°12'4815.9 050 / 121016.0
2020-Jan-19 15:00N 15°18' W 042°00'3517.4 050 / 121016.0
2020-Jan-19 13:00N 15°18' W 042°36'1818.4 040 / 111019.0
2020-Jan-19 12:00N 15°12' W 042°54'1211.6 050 / 171019.0
2020-Jan-19 11:00N 15°12' W 043°06'1818.4 050 / 171019.0
2020-Jan-19 10:00N 15°06' W 043°24'1717.4 050 / 151018.0
2020-Jan-19 09:00N 15°06' W 043°42'1818.4 050 / 151018.0
2020-Jan-19 08:00N 15°00' W 044°00'1717.4 1015.0
2020-Jan-19 07:00N 15°00' W 044°18'1818.4 1015.0
2020-Jan-19 06:00N 14°54' W 044°36'1211.6 1015.0
2020-Jan-19 05:00N 14°54' W 044°48'1818.4 060 / 161015.0
2020-Jan-19 04:00N 14°48' W 045°06'14620.9 080 / 181016.0
2020-Jan-18 21:00N 14°30' W 047°36'0 0.0 070 / 151017.0
2020-Jan-18 19:00N 14°30' W 047°36'6464.2 090 / 171017.0
2020-Jan-18 18:00N 14°24' W 048°42'0 0.0 090 / 241018.0
2020-Jan-18 17:00N 14°24' W 048°42'0 0.0 090 / 241018.0
2020-Jan-18 16:00N 14°24' W 048°42'0 0.0 090 / 241018.0
2020-Jan-18 15:00N 14°24' W 048°42'5317.6 090 / 241018.0
2020-Jan-18 12:00N 14°18' W 049°36'1313.1 090 / 211018.0
2020-Jan-18 11:00N 14°12' W 049°48'1717.5 070 / 201018.0
2020-Jan-18 10:00N 14°12' W 050°06'1818.5 080 / 191017.0
2020-Jan-18 09:00N 14°06' W 050°24'2323.3 080 / 211017.0
2020-Jan-18 08:00N 14°06' W 050°48'1313.1 060 / 201014.0
2020-Jan-18 07:00N 14°00' W 051°00'1211.6 060 / 201014.0
2020-Jan-18 06:00N 14°00' W 051°12'1717.5 070 / 211014.0
2020-Jan-18 05:00N 14°00' W 051°30'1818.5 1015.0
2020-Jan-18 04:00N 13°54' W 051°48'6432.2 1015.0
2020-Jan-18 02:00N 13°48' W 052°54'0 0.0 060 / 251016.0
2020-Jan-18 01:00N 13°48' W 052°54'0 0.0 060 / 251016.0
2020-Jan-18 00:00N 13°48' W 052°54'4747.0 060 / 251016.0
2020-Jan-17 23:00N 13°42' W 053°42'0 0.0 080 / 231016.0
2020-Jan-17 21:00N 13°42' W 053°42'1717.5 080 / 231016.0
2020-Jan-17 20:00N 13°42' W 054°00'1313.1 070 / 221016.0
2020-Jan-17 19:00N 13°36' W 054°12'4715.7 070 / 261015.0
2020-Jan-17 16:00N 13°30' W 055°00'3014.9 090 / 231016.0
2020-Jan-17 14:00N 13°24' W 055°30'2323.3 080 / 231016.0
2020-Jan-17 13:00N 13°24' W 055°54'1211.7 100 / 221018.0
2020-Jan-17 12:00N 13°24' W 056°06'1918.5 090 / 221018.0
2020-Jan-17 11:00N 13°18' W 056°24'1211.7 090 / 211016.0
2020-Jan-17 10:00N 13°18' W 056°36'2424.1 090 / 211016.0
2020-Jan-17 09:00N 13°12' W 057°00'6 5.8 090 / 251013.0
2020-Jan-17 08:00N 13°12' W 057°06'1918.5 090 / 251013.0
2020-Jan-17 07:00N 13°06' W 057°24'1211.7 080 / 231013.0
2020-Jan-17 06:00N 13°06' W 057°36'1817.5 080 / 231013.0
2020-Jan-17 05:00N 13°06' W 057°54'9949.7 080 / 231014.0
2020-Jan-17 03:00N 13°06' W 059°36'0 0.0 100 / 101015.0
2020-Jan-17 02:00N 13°06' W 059°36'0 0.0 100 / 101015.0
2020-Jan-17 00:00N 13°06' W 059°36'0 0.0 100 / 101015.0
2020-Jan-16 22:00N 13°06' W 059°36'0 0.0 1015.0
2020-Jan-16 21:00N 13°06' W 059°36'0 0.0 100 / 101015.0
2020-Jan-16 20:00N 13°06' W 059°36'0 0.0 100 / 101013.0
2020-Jan-16 17:00N 13°06' W 059°36'0 0.0 1013.0
2020-Jan-16 15:00N 13°06' W 059°36'0 0.0 100 / 101015.0
2020-Jan-16 14:00N 13°06' W 059°36'0 0.0 100 / 151017.0
2020-Jan-16 13:00N 13°06' W 059°36'0 0.0 100 / 151018.0
2020-Jan-16 11:00N 13°06' W 059°36'0 0.0 080 / 71013.0
2020-Jan-16 10:00N 13°06' W 059°36'0 0.0 090 / 51013.0
2020-Jan-16 09:00N 13°06' W 059°36'0 0.0 090 / 51013.0
2020-Jan-16 08:00N 13°06' W 059°36'0 0.0 1013.0
2020-Jan-16 07:00N 13°06' W 059°36'0 0.0 1013.0
2020-Jan-16 06:00N 13°06' W 059°36'0 0.0 1013.0
2020-Jan-16 05:00N 13°06' W 059°36'0 0.0 1013.0
2020-Jan-16 03:00N 13°06' W 059°36'0 0.0 090 / 81016.0
2020-Jan-16 01:00N 13°06' W 059°36'0 0.0 090 / 81016.0
2020-Jan-15 23:00N 13°06' W 059°36'0 0.0 090 / 81015.0
2020-Jan-15 22:00N 13°06' W 059°36'0 0.0 080 / 61014.0
2020-Jan-15 17:00N 13°06' W 059°36'0 0.0 1013.0
2020-Jan-15 13:00N 13°06' W 059°36'0 0.0 090 / 151015.0
2020-Jan-15 12:00N 13°06' W 059°36'6 3.0 120 / 191015.0
2020-Jan-15 10:00N 13°12' W 059°36'8 8.4 040 / 121014.0
2020-Jan-15 09:00N 13°06' W 059°42'0 0.0 1011.0
2020-Jan-15 08:00N 13°06' W 059°42'6 6.0 1011.0
2020-Jan-15 07:00N 13°12' W 059°42'17 8.4 1011.0
2020-Jan-15 05:00N 13°00' W 059°54'4113.8 090 / 271013.0
2020-Jan-15 02:00N 12°54' W 060°36'0 0.0 090 / 271013.0
2020-Jan-15 01:00N 12°54' W 060°36'3014.9 090 / 271013.0
2020-Jan-14 23:00N 13°00' W 061°06'0 0.0 090 / 271013.0
2020-Jan-14 22:00N 13°00' W 061°06'6 1.9 090 / 271013.0
2020-Jan-14 19:00N 13°00' W 061°12'0 0.0 060 / 171016.0
2020-Jan-14 18:00N 13°00' W 061°12'0 0.0 060 / 171016.0
2020-Jan-14 17:00N 13°00' W 061°12'0 0.0 060 / 171016.0
2020-Jan-14 15:00N 13°00' W 061°12'8 2.1 060 / 171016.0
2020-Jan-14 11:00N 12°54' W 061°18'2121.5 080 / 251015.0
2020-Jan-14 10:00N 12°36' W 061°30'1313.2 070 / 251014.0
2020-Jan-14 09:00N 12°30' W 061°42'1313.2 070 / 251014.0
2020-Jan-14 08:00N 12°24' W 061°54'1918.6 070 / 261012.0
2020-Jan-14 07:00N 12°18' W 062°12'1918.6 080 / 251012.0
2020-Jan-14 06:00N 12°12' W 062°30'1313.2 1013.0
2020-Jan-14 05:00N 12°06' W 062°42'5627.9 1013.0
2020-Jan-14 03:00N 11°48' W 063°36'0 0.0 070 / 251014.0
2020-Jan-14 02:00N 11°48' W 063°36'0 0.0 070 / 251014.0
2020-Jan-14 01:00N 11°48' W 063°36'   070 / 251014.0
Track history (hours):
 
Tides and Currents Weather Stations Pressure Air Temp Water Temp Dewpoint Dewpoint Depression Visibility Wind Speed Wind Dir Waves Ship Positions

Seabourn Sojourn

Last reported at 2020-Jan-24 01:00 UTC. Time now 2020-Jan-24 02:27 UTC.
Position N 14°42' W 018°24'.

Length 197 m; draft 6.6 m.

Type: Ship. MMSI: 311027100.

Barometer 1011.0 mb

Date/timePositionNaut miles runAvg speedWind from/ knotsBaromVisibWave heightAir tempDewpointWater temp
2020-Jan-24 01:00N 14°42' W 018°24'10133.8 1011.0
2020-Jan-23 22:00N 15°06' W 020°06'0 0.0 070 / 231013.0
2020-Jan-23 21:00N 15°06' W 020°06'0 0.0 070 / 231013.0
2020-Jan-23 19:00N 15°06' W 020°06'0 0.0 070 / 231013.0
2020-Jan-23 18:00N 15°06' W 020°06'8516.9 070 / 231013.0
2020-Jan-23 13:00N 15°30' W 021°30'1211.6 080 / 191013.0
2020-Jan-23 12:00N 15°30' W 021°42'3115.6 080 / 181014.0
2020-Jan-23 10:00N 15°42' W 022°12'1818.3 080 / 211016.0
2020-Jan-23 09:00N 15°48' W 022°30'1211.5 070 / 201015.0
2020-Jan-23 08:00N 15°48' W 022°42'1313.0 070 / 231015.0
2020-Jan-23 07:00N 15°54' W 022°54'1818.3 070 / 111015.0
2020-Jan-23 06:00N 16°00' W 023°12'1313.0 1012.0
2020-Jan-23 05:00N 16°06' W 023°24'1211.5 1012.0
2020-Jan-23 04:00N 16°06' W 023°36'8 8.3 070 / 221014.0
2020-Jan-23 03:00N 16°12' W 023°42'8311.9 1014.0
2020-Jan-22 20:00N 16°48' W 025°00'0 0.0 070 / 101015.0
2020-Jan-22 19:00N 16°48' W 025°00'0 0.0 090 / 41014.0
2020-Jan-22 17:00N 16°48' W 025°00'0 0.0 050 / 61016.0
2020-Jan-22 13:00N 16°48' W 025°00'0 0.0 1016.0
2020-Jan-22 12:00N 16°48' W 025°00'0 0.0 1016.0
2020-Jan-22 09:00N 16°48' W 025°00'6312.6 050 / 61016.0
2020-Jan-22 04:00N 16°48' W 026°06'1111.5 090 / 151013.0
2020-Jan-22 03:00N 16°48' W 026°18'1717.2 1013.0
2020-Jan-22 02:00N 16°48' W 026°36'6 5.7 1013.0
2020-Jan-22 01:00N 16°48' W 026°42'5857.8 1013.0
2020-Jan-22 00:00N 16°42' W 027°42'0 0.0 040 / 161014.0
2020-Jan-21 22:00N 16°42' W 027°42'0 0.0 040 / 161014.0
2020-Jan-21 21:00N 16°42' W 027°42'1717.2 040 / 161014.0
2020-Jan-21 20:00N 16°42' W 028°00'3411.5 040 / 161014.0
2020-Jan-21 17:00N 16°42' W 028°36'3417.2 070 / 91013.0
2020-Jan-21 15:00N 16°42' W 029°12'8 8.3 040 / 141012.0
2020-Jan-21 14:00N 16°36' W 029°18'1717.2 040 / 141012.0
2020-Jan-21 13:00N 16°36' W 029°36'2914.4 070 / 131013.0
2020-Jan-21 11:00N 16°36' W 030°06'1111.5 060 / 81015.0
2020-Jan-21 10:00N 16°36' W 030°18'1717.2 070 / 81015.0
2020-Jan-21 09:00N 16°36' W 030°36'1111.5 080 / 61015.0
2020-Jan-21 08:00N 16°36' W 030°48'1818.3 080 / 101015.0
2020-Jan-21 07:00N 16°30' W 031°06'1211.5 1013.0
2020-Jan-21 06:00N 16°30' W 031°18'1211.5 1012.0
2020-Jan-21 05:00N 16°30' W 031°30'1211.5 1012.0
2020-Jan-21 04:00N 16°30' W 031°42'1717.3 050 / 201013.0
2020-Jan-21 03:00N 16°30' W 032°00'1211.5 050 / 201013.0
2020-Jan-21 02:00N 16°30' W 032°12'1717.3 050 / 181013.0
2020-Jan-21 01:00N 16°30' W 032°30'8140.4 050 / 171013.0
2020-Jan-20 23:00N 16°24' W 033°54'0 0.0 050 / 171013.0
2020-Jan-20 22:00N 16°24' W 033°54'0 0.0 050 / 171013.0
2020-Jan-20 21:00N 16°24' W 033°54'0 0.0 050 / 171013.0
2020-Jan-20 20:00N 16°24' W 033°54'1818.3 050 / 171013.0
2020-Jan-20 19:00N 16°18' W 034°12'5217.3 050 / 171013.0
2020-Jan-20 16:00N 16°18' W 035°06'0 0.0 040 / 151016.0
2020-Jan-20 15:00N 16°18' W 035°06'17517.5 040 / 151016.0
2020-Jan-20 05:00N 15°54' W 038°06'1818.3 1014.0
2020-Jan-20 04:00N 15°48' W 038°24'1211.5 1015.0
2020-Jan-20 03:00N 15°48' W 038°36'9392.6 1015.0
2020-Jan-20 02:00N 15°42' W 040°12'0 0.0 060 / 151016.0
2020-Jan-20 01:00N 15°42' W 040°12'3131.3 060 / 151016.0
2020-Jan-20 00:00N 15°30' W 040°42'0 0.0 060 / 151016.0
2020-Jan-19 22:00N 15°30' W 040°42'0 0.0 060 / 151016.0
2020-Jan-19 20:00N 15°30' W 040°42'2914.5 060 / 151016.0
2020-Jan-19 18:00N 15°30' W 041°12'4815.9 050 / 121016.0
2020-Jan-19 15:00N 15°18' W 042°00'3517.4 050 / 121016.0
2020-Jan-19 13:00N 15°18' W 042°36'1818.4 040 / 111019.0
2020-Jan-19 12:00N 15°12' W 042°54'1211.6 050 / 171019.0
2020-Jan-19 11:00N 15°12' W 043°06'1818.4 050 / 171019.0
2020-Jan-19 10:00N 15°06' W 043°24'1717.4 050 / 151018.0
2020-Jan-19 09:00N 15°06' W 043°42'1818.4 050 / 151018.0
2020-Jan-19 08:00N 15°00' W 044°00'1717.4 1015.0
2020-Jan-19 07:00N 15°00' W 044°18'1818.4 1015.0
2020-Jan-19 06:00N 14°54' W 044°36'1211.6 1015.0
2020-Jan-19 05:00N 14°54' W 044°48'1818.4 060 / 161015.0
2020-Jan-19 04:00N 14°48' W 045°06'14620.9 080 / 181016.0
2020-Jan-18 21:00N 14°30' W 047°36'0 0.0 070 / 151017.0
2020-Jan-18 19:00N 14°30' W 047°36'6464.2 090 / 171017.0
2020-Jan-18 18:00N 14°24' W 048°42'0 0.0 090 / 241018.0
2020-Jan-18 17:00N 14°24' W 048°42'0 0.0 090 / 241018.0
2020-Jan-18 16:00N 14°24' W 048°42'0 0.0 090 / 241018.0
2020-Jan-18 15:00N 14°24' W 048°42'5317.6 090 / 241018.0
2020-Jan-18 12:00N 14°18' W 049°36'1313.1 090 / 211018.0
2020-Jan-18 11:00N 14°12' W 049°48'1717.5 070 / 201018.0
2020-Jan-18 10:00N 14°12' W 050°06'1818.5 080 / 191017.0
2020-Jan-18 09:00N 14°06' W 050°24'2323.3 080 / 211017.0
2020-Jan-18 08:00N 14°06' W 050°48'1313.1 060 / 201014.0
2020-Jan-18 07:00N 14°00' W 051°00'1211.6 060 / 201014.0
2020-Jan-18 06:00N 14°00' W 051°12'1717.5 070 / 211014.0
2020-Jan-18 05:00N 14°00' W 051°30'1818.5 1015.0
2020-Jan-18 04:00N 13°54' W 051°48'6432.2 1015.0
2020-Jan-18 02:00N 13°48' W 052°54'0 0.0 060 / 251016.0
2020-Jan-18 01:00N 13°48' W 052°54'0 0.0 060 / 251016.0
2020-Jan-18 00:00N 13°48' W 052°54'4747.0 060 / 251016.0
2020-Jan-17 23:00N 13°42' W 053°42'0 0.0 080 / 231016.0
2020-Jan-17 21:00N 13°42' W 053°42'1717.5 080 / 231016.0
2020-Jan-17 20:00N 13°42' W 054°00'1313.1 070 / 221016.0
2020-Jan-17 19:00N 13°36' W 054°12'4715.7 070 / 261015.0
2020-Jan-17 16:00N 13°30' W 055°00'3014.9 090 / 231016.0
2020-Jan-17 14:00N 13°24' W 055°30'2323.3 080 / 231016.0
2020-Jan-17 13:00N 13°24' W 055°54'1211.7 100 / 221018.0
2020-Jan-17 12:00N 13°24' W 056°06'1918.5 090 / 221018.0
2020-Jan-17 11:00N 13°18' W 056°24'1211.7 090 / 211016.0
2020-Jan-17 10:00N 13°18' W 056°36'2424.1 090 / 211016.0
2020-Jan-17 09:00N 13°12' W 057°00'6 5.8 090 / 251013.0
2020-Jan-17 08:00N 13°12' W 057°06'1918.5 090 / 251013.0
2020-Jan-17 07:00N 13°06' W 057°24'1211.7 080 / 231013.0
2020-Jan-17 06:00N 13°06' W 057°36'1817.5 080 / 231013.0
2020-Jan-17 05:00N 13°06' W 057°54'9949.7 080 / 231014.0
2020-Jan-17 03:00N 13°06' W 059°36'0 0.0 100 / 101015.0
2020-Jan-17 02:00N 13°06' W 059°36'0 0.0 100 / 101015.0
2020-Jan-17 00:00N 13°06' W 059°36'0 0.0 100 / 101015.0
2020-Jan-16 22:00N 13°06' W 059°36'0 0.0 1015.0
2020-Jan-16 21:00N 13°06' W 059°36'0 0.0 100 / 101015.0
2020-Jan-16 20:00N 13°06' W 059°36'0 0.0 100 / 101013.0
2020-Jan-16 17:00N 13°06' W 059°36'0 0.0 1013.0
2020-Jan-16 15:00N 13°06' W 059°36'0 0.0 100 / 101015.0
2020-Jan-16 14:00N 13°06' W 059°36'0 0.0 100 / 151017.0
2020-Jan-16 13:00N 13°06' W 059°36'0 0.0 100 / 151018.0
2020-Jan-16 11:00N 13°06' W 059°36'0 0.0 080 / 71013.0
2020-Jan-16 10:00N 13°06' W 059°36'0 0.0 090 / 51013.0
2020-Jan-16 09:00N 13°06' W 059°36'0 0.0 090 / 51013.0
2020-Jan-16 08:00N 13°06' W 059°36'0 0.0 1013.0
2020-Jan-16 07:00N 13°06' W 059°36'0 0.0 1013.0
2020-Jan-16 06:00N 13°06' W 059°36'0 0.0 1013.0
2020-Jan-16 05:00N 13°06' W 059°36'0 0.0 1013.0
2020-Jan-16 03:00N 13°06' W 059°36'0 0.0 090 / 81016.0
2020-Jan-16 01:00N 13°06' W 059°36'0 0.0 090 / 81016.0
2020-Jan-15 23:00N 13°06' W 059°36'0 0.0 090 / 81015.0
2020-Jan-15 22:00N 13°06' W 059°36'0 0.0 080 / 61014.0
2020-Jan-15 17:00N 13°06' W 059°36'0 0.0 1013.0
2020-Jan-15 13:00N 13°06' W 059°36'0 0.0 090 / 151015.0
2020-Jan-15 12:00N 13°06' W 059°36'6 3.0 120 / 191015.0
2020-Jan-15 10:00N 13°12' W 059°36'8 8.4 040 / 121014.0
2020-Jan-15 09:00N 13°06' W 059°42'0 0.0 1011.0
2020-Jan-15 08:00N 13°06' W 059°42'6 6.0 1011.0
2020-Jan-15 07:00N 13°12' W 059°42'17 8.4 1011.0
2020-Jan-15 05:00N 13°00' W 059°54'4113.8 090 / 271013.0
2020-Jan-15 02:00N 12°54' W 060°36'0 0.0 090 / 271013.0
2020-Jan-15 01:00N 12°54' W 060°36'3014.9 090 / 271013.0
2020-Jan-14 23:00N 13°00' W 061°06'0 0.0 090 / 271013.0
2020-Jan-14 22:00N 13°00' W 061°06'6 1.9 090 / 271013.0
2020-Jan-14 19:00N 13°00' W 061°12'0 0.0 060 / 171016.0
2020-Jan-14 18:00N 13°00' W 061°12'0 0.0 060 / 171016.0
2020-Jan-14 17:00N 13°00' W 061°12'0 0.0 060 / 171016.0
2020-Jan-14 15:00N 13°00' W 061°12'8 2.1 060 / 171016.0
2020-Jan-14 11:00N 12°54' W 061°18'2121.5 080 / 251015.0
2020-Jan-14 10:00N 12°36' W 061°30'1313.2 070 / 251014.0
2020-Jan-14 09:00N 12°30' W 061°42'1313.2 070 / 251014.0
2020-Jan-14 08:00N 12°24' W 061°54'1918.6 070 / 261012.0
2020-Jan-14 07:00N 12°18' W 062°12'1918.6 080 / 251012.0
2020-Jan-14 06:00N 12°12' W 062°30'1313.2 1013.0
2020-Jan-14 05:00N 12°06' W 062°42'5627.9 1013.0
2020-Jan-14 03:00N 11°48' W 063°36'0 0.0 070 / 251014.0
2020-Jan-14 02:00N 11°48' W 063°36'0 0.0 070 / 251014.0
2020-Jan-14 01:00N 11°48' W 063°36'   070 / 251014.0

Dump ship's entire track history